sensor_id;sensor_type;location;lat;lon;timestamp;P1;durP1;ratioP1;P2;durP2;ratioP2
43606;SDS011;29197;44.788;10.366;2023-08-07T00:02:15;3.88;;;1.23;;
43606;SDS011;29197;44.788;10.366;2023-08-07T00:05:04;2.40;;;1.08;;
43606;SDS011;29197;44.788;10.366;2023-08-07T00:07:53;4.63;;;1.00;;
43606;SDS011;29197;44.788;10.366;2023-08-07T00:10:42;4.32;;;1.17;;
43606;SDS011;29197;44.788;10.366;2023-08-07T00:13:31;6.20;;;1.20;;
43606;SDS011;29197;44.788;10.366;2023-08-07T00:16:21;8.75;;;1.20;;
43606;SDS011;29197;44.788;10.366;2023-08-07T00:19:10;3.55;;;1.02;;
43606;SDS011;29197;44.788;10.366;2023-08-07T00:21:59;4.97;;;1.50;;
43606;SDS011;29197;44.788;10.366;2023-08-07T00:24:47;5.18;;;1.42;;
43606;SDS011;29197;44.788;10.366;2023-08-07T00:27:36;6.50;;;1.27;;
43606;SDS011;29197;44.788;10.366;2023-08-07T00:30:24;2.80;;;1.20;;
43606;SDS011;29197;44.788;10.366;2023-08-07T00:33:14;4.03;;;0.73;;
43606;SDS011;29197;44.788;10.366;2023-08-07T00:36:03;6.57;;;1.33;;
43606;SDS011;29197;44.788;10.366;2023-08-07T00:38:51;4.07;;;1.00;;
43606;SDS011;29197;44.788;10.366;2023-08-07T00:41:40;3.95;;;1.25;;
43606;SDS011;29197;44.788;10.366;2023-08-07T00:44:29;7.03;;;1.27;;
43606;SDS011;29197;44.788;10.366;2023-08-07T00:47:17;2.53;;;0.98;;
43606;SDS011;29197;44.788;10.366;2023-08-07T00:50:08;6.65;;;1.30;;
43606;SDS011;29197;44.788;10.366;2023-08-07T00:52:57;4.43;;;1.40;;
43606;SDS011;29197;44.788;10.366;2023-08-07T00:55:46;3.00;;;1.25;;
43606;SDS011;29197;44.788;10.366;2023-08-07T00:58:35;4.25;;;1.30;;
43606;SDS011;29197;44.788;10.366;2023-08-07T01:01:24;2.50;;;1.00;;
43606;SDS011;29197;44.788;10.366;2023-08-07T01:04:13;2.42;;;1.00;;
43606;SDS011;29197;44.788;10.366;2023-08-07T01:07:03;3.20;;;1.23;;
43606;SDS011;29197;44.788;10.366;2023-08-07T01:09:52;5.20;;;1.10;;
43606;SDS011;29197;44.788;10.366;2023-08-07T01:12:45;3.42;;;1.20;;
43606;SDS011;29197;44.788;10.366;2023-08-07T01:15:41;3.10;;;1.33;;
43606;SDS011;29197;44.788;10.366;2023-08-07T01:18:29;3.45;;;1.00;;
43606;SDS011;29197;44.788;10.366;2023-08-07T01:21:19;2.42;;;0.70;;
43606;SDS011;29197;44.788;10.366;2023-08-07T01:24:09;2.47;;;0.80;;
43606;SDS011;29197;44.788;10.366;2023-08-07T01:27:00;4.75;;;0.73;;
43606;SDS011;29197;44.788;10.366;2023-08-07T01:29:57;5.00;;;1.08;;
43606;SDS011;29197;44.788;10.366;2023-08-07T01:32:54;2.67;;;1.00;;
43606;SDS011;29197;44.788;10.366;2023-08-07T01:35:47;4.97;;;1.00;;
43606;SDS011;29197;44.788;10.366;2023-08-07T01:38:39;2.85;;;1.05;;
43606;SDS011;29197;44.788;10.366;2023-08-07T01:41:30;3.67;;;1.30;;
43606;SDS011;29197;44.788;10.366;2023-08-07T01:44:19;1.33;;;0.65;;
43606;SDS011;29197;44.788;10.366;2023-08-07T01:47:08;4.15;;;1.35;;
43606;SDS011;29197;44.788;10.366;2023-08-07T01:49:57;7.18;;;1.20;;
43606;SDS011;29197;44.788;10.366;2023-08-07T01:52:52;2.08;;;0.82;;
43606;SDS011;29197;44.788;10.366;2023-08-07T01:55:44;5.78;;;1.25;;
43606;SDS011;29197;44.788;10.366;2023-08-07T01:58:41;1.10;;;0.82;;
43606;SDS011;29197;44.788;10.366;2023-08-07T02:01:30;1.85;;;1.05;;
43606;SDS011;29197;44.788;10.366;2023-08-07T02:04:18;1.35;;;0.88;;
43606;SDS011;29197;44.788;10.366;2023-08-07T02:07:07;3.70;;;1.42;;
43606;SDS011;29197;44.788;10.366;2023-08-07T02:09:55;2.97;;;1.00;;
43606;SDS011;29197;44.788;10.366;2023-08-07T02:12:44;0.80;;;0.77;;
43606;SDS011;29197;44.788;10.366;2023-08-07T02:15:34;2.35;;;0.70;;
43606;SDS011;29197;44.788;10.366;2023-08-07T02:18:23;1.33;;;0.55;;
43606;SDS011;29197;44.788;10.366;2023-08-07T02:21:11;3.22;;;0.75;;
43606;SDS011;29197;44.788;10.366;2023-08-07T02:24:00;1.75;;;0.70;;
43606;SDS011;29197;44.788;10.366;2023-08-07T02:26:48;2.10;;;0.95;;
43606;SDS011;29197;44.788;10.366;2023-08-07T02:29:37;1.38;;;0.68;;
43606;SDS011;29197;44.788;10.366;2023-08-07T02:32:27;3.78;;;0.90;;
43606;SDS011;29197;44.788;10.366;2023-08-07T02:35:15;1.05;;;0.55;;
43606;SDS011;29197;44.788;10.366;2023-08-07T02:38:04;0.90;;;0.80;;
43606;SDS011;29197;44.788;10.366;2023-08-07T02:40:53;0.50;;;0.45;;
43606;SDS011;29197;44.788;10.366;2023-08-07T02:43:42;1.35;;;0.60;;
43606;SDS011;29197;44.788;10.366;2023-08-07T02:46:30;2.10;;;0.57;;
43606;SDS011;29197;44.788;10.366;2023-08-07T02:49:22;1.50;;;0.50;;
43606;SDS011;29197;44.788;10.366;2023-08-07T02:52:11;0.70;;;0.52;;
43606;SDS011;29197;44.788;10.366;2023-08-07T02:54:59;0.88;;;0.60;;
43606;SDS011;29197;44.788;10.366;2023-08-07T02:57:48;0.52;;;0.43;;
43606;SDS011;29197;44.788;10.366;2023-08-07T03:00:36;1.27;;;0.57;;
43606;SDS011;29197;44.788;10.366;2023-08-07T03:03:25;0.80;;;0.65;;
43606;SDS011;29197;44.788;10.366;2023-08-07T03:06:15;0.85;;;0.70;;
43606;SDS011;29197;44.788;10.366;2023-08-07T03:09:04;0.50;;;0.50;;
43606;SDS011;29197;44.788;10.366;2023-08-07T03:11:53;3.60;;;0.60;;
43606;SDS011;29197;44.788;10.366;2023-08-07T03:14:41;0.52;;;0.47;;
43606;SDS011;29197;44.788;10.366;2023-08-07T03:17:30;0.40;;;0.40;;
43606;SDS011;29197;44.788;10.366;2023-08-07T03:20:18;0.70;;;0.60;;
43606;SDS011;29197;44.788;10.366;2023-08-07T03:23:08;0.57;;;0.40;;
43606;SDS011;29197;44.788;10.366;2023-08-07T03:26:07;1.15;;;0.77;;
43606;SDS011;29197;44.788;10.366;2023-08-07T03:28:59;0.88;;;0.63;;
43606;SDS011;29197;44.788;10.366;2023-08-07T03:31:48;0.82;;;0.57;;
43606;SDS011;29197;44.788;10.366;2023-08-07T03:34:36;1.33;;;0.52;;
43606;SDS011;29197;44.788;10.366;2023-08-07T03:37:25;1.88;;;0.93;;
43606;SDS011;29197;44.788;10.366;2023-08-07T03:40:15;1.45;;;0.60;;
43606;SDS011;29197;44.788;10.366;2023-08-07T03:43:03;1.15;;;0.60;;
43606;SDS011;29197;44.788;10.366;2023-08-07T03:45:53;5.05;;;0.55;;
43606;SDS011;29197;44.788;10.366;2023-08-07T03:48:46;0.73;;;0.50;;
43606;SDS011;29197;44.788;10.366;2023-08-07T03:51:35;1.15;;;0.90;;
43606;SDS011;29197;44.788;10.366;2023-08-07T03:54:24;5.70;;;0.75;;
43606;SDS011;29197;44.788;10.366;2023-08-07T03:57:14;3.45;;;1.00;;
43606;SDS011;29197;44.788;10.366;2023-08-07T04:00:02;3.15;;;0.40;;
43606;SDS011;29197;44.788;10.366;2023-08-07T04:02:52;1.20;;;0.60;;
43606;SDS011;29197;44.788;10.366;2023-08-07T04:05:40;1.73;;;0.60;;
43606;SDS011;29197;44.788;10.366;2023-08-07T04:08:29;1.17;;;0.50;;
43606;SDS011;29197;44.788;10.366;2023-08-07T04:11:17;2.05;;;0.57;;
43606;SDS011;29197;44.788;10.366;2023-08-07T04:14:07;1.15;;;0.40;;
43606;SDS011;29197;44.788;10.366;2023-08-07T04:16:56;2.05;;;0.80;;
43606;SDS011;29197;44.788;10.366;2023-08-07T04:19:44;0.88;;;0.57;;
43606;SDS011;29197;44.788;10.366;2023-08-07T04:22:33;1.73;;;0.75;;
43606;SDS011;29197;44.788;10.366;2023-08-07T04:25:22;2.60;;;0.75;;
43606;SDS011;29197;44.788;10.366;2023-08-07T04:28:10;3.38;;;0.85;;
43606;SDS011;29197;44.788;10.366;2023-08-07T04:31:00;5.22;;;1.60;;
43606;SDS011;29197;44.788;10.366;2023-08-07T04:33:49;3.22;;;0.70;;
43606;SDS011;29197;44.788;10.366;2023-08-07T04:36:37;3.08;;;0.60;;
43606;SDS011;29197;44.788;10.366;2023-08-07T04:39:26;2.30;;;0.70;;
43606;SDS011;29197;44.788;10.366;2023-08-07T04:42:15;1.23;;;0.70;;
43606;SDS011;29197;44.788;10.366;2023-08-07T04:45:03;1.15;;;0.70;;
43606;SDS011;29197;44.788;10.366;2023-08-07T04:47:54;1.00;;;0.65;;
43606;SDS011;29197;44.788;10.366;2023-08-07T04:50:43;2.17;;;0.95;;
43606;SDS011;29197;44.788;10.366;2023-08-07T04:53:31;4.40;;;1.00;;
43606;SDS011;29197;44.788;10.366;2023-08-07T04:56:20;2.20;;;1.17;;
43606;SDS011;29197;44.788;10.366;2023-08-07T04:59:08;2.30;;;1.00;;
43606;SDS011;29197;44.788;10.366;2023-08-07T05:01:57;0.73;;;0.70;;
43606;SDS011;29197;44.788;10.366;2023-08-07T05:04:47;2.33;;;0.80;;
43606;SDS011;29197;44.788;10.366;2023-08-07T05:07:36;2.63;;;0.65;;
43606;SDS011;29197;44.788;10.366;2023-08-07T05:10:25;2.30;;;0.68;;
43606;SDS011;29197;44.788;10.366;2023-08-07T05:13:14;2.35;;;0.70;;
43606;SDS011;29197;44.788;10.366;2023-08-07T05:16:02;2.95;;;0.80;;
43606;SDS011;29197;44.788;10.366;2023-08-07T05:18:51;1.95;;;0.75;;
43606;SDS011;29197;44.788;10.366;2023-08-07T05:21:42;0.70;;;0.50;;
43606;SDS011;29197;44.788;10.366;2023-08-07T05:24:30;2.78;;;0.45;;
43606;SDS011;29197;44.788;10.366;2023-08-07T05:27:25;1.83;;;0.63;;
43606;SDS011;29197;44.788;10.366;2023-08-07T05:30:14;1.23;;;0.70;;
43606;SDS011;29197;44.788;10.366;2023-08-07T05:33:02;1.10;;;0.60;;
43606;SDS011;29197;44.788;10.366;2023-08-07T05:35:51;0.85;;;0.50;;
43606;SDS011;29197;44.788;10.366;2023-08-07T05:38:43;1.10;;;0.57;;
43606;SDS011;29197;44.788;10.366;2023-08-07T05:41:31;3.28;;;0.60;;
43606;SDS011;29197;44.788;10.366;2023-08-07T05:44:20;1.08;;;0.60;;
43606;SDS011;29197;44.788;10.366;2023-08-07T05:47:08;0.57;;;0.50;;
43606;SDS011;29197;44.788;10.366;2023-08-07T05:49:57;0.82;;;0.52;;
43606;SDS011;29197;44.788;10.366;2023-08-07T05:52:45;2.15;;;0.63;;
43606;SDS011;29197;44.788;10.366;2023-08-07T05:55:35;0.85;;;0.50;;
43606;SDS011;29197;44.788;10.366;2023-08-07T05:58:28;1.52;;;0.70;;
43606;SDS011;29197;44.788;10.366;2023-08-07T06:01:17;1.02;;;0.57;;
43606;SDS011;29197;44.788;10.366;2023-08-07T06:04:05;0.85;;;0.32;;
43606;SDS011;29197;44.788;10.366;2023-08-07T06:06:55;2.72;;;0.70;;
43606;SDS011;29197;44.788;10.366;2023-08-07T06:09:44;0.50;;;0.50;;
43606;SDS011;29197;44.788;10.366;2023-08-07T06:12:34;1.42;;;0.60;;
43606;SDS011;29197;44.788;10.366;2023-08-07T06:15:23;0.45;;;0.40;;
43606;SDS011;29197;44.788;10.366;2023-08-07T06:18:11;2.67;;;0.32;;
43606;SDS011;29197;44.788;10.366;2023-08-07T06:21:00;0.57;;;0.32;;
43606;SDS011;29197;44.788;10.366;2023-08-07T06:23:48;2.40;;;0.38;;
43606;SDS011;29197;44.788;10.366;2023-08-07T06:26:37;1.05;;;0.28;;
43606;SDS011;29197;44.788;10.366;2023-08-07T06:29:27;0.77;;;0.40;;
43606;SDS011;29197;44.788;10.366;2023-08-07T06:32:16;0.93;;;0.52;;
43606;SDS011;29197;44.788;10.366;2023-08-07T06:35:05;0.57;;;0.35;;
43606;SDS011;29197;44.788;10.366;2023-08-07T06:37:54;1.13;;;0.30;;
43606;SDS011;29197;44.788;10.366;2023-08-07T06:40:42;0.50;;;0.40;;
43606;SDS011;29197;44.788;10.366;2023-08-07T06:43:33;4.93;;;0.50;;
43606;SDS011;29197;44.788;10.366;2023-08-07T06:46:23;2.72;;;0.63;;
43606;SDS011;29197;44.788;10.366;2023-08-07T06:49:14;0.68;;;0.40;;
43606;SDS011;29197;44.788;10.366;2023-08-07T06:52:03;3.60;;;0.60;;
43606;SDS011;29197;44.788;10.366;2023-08-07T06:54:52;0.88;;;0.30;;
43606;SDS011;29197;44.788;10.366;2023-08-07T06:57:41;0.40;;;0.40;;
43606;SDS011;29197;44.788;10.366;2023-08-07T07:00:30;1.02;;;0.28;;
43606;SDS011;29197;44.788;10.366;2023-08-07T07:03:21;0.77;;;0.30;;
43606;SDS011;29197;44.788;10.366;2023-08-07T07:06:11;0.65;;;0.40;;
43606;SDS011;29197;44.788;10.366;2023-08-07T07:08:59;1.17;;;0.38;;
43606;SDS011;29197;44.788;10.366;2023-08-07T07:11:48;0.30;;;0.25;;
43606;SDS011;29197;44.788;10.366;2023-08-07T07:14:37;0.30;;;0.30;;
43606;SDS011;29197;44.788;10.366;2023-08-07T07:17:26;0.20;;;0.20;;
43606;SDS011;29197;44.788;10.366;2023-08-07T07:20:16;0.55;;;0.30;;
43606;SDS011;29197;44.788;10.366;2023-08-07T07:23:05;0.28;;;0.22;;
43606;SDS011;29197;44.788;10.366;2023-08-07T07:25:53;0.35;;;0.22;;
43606;SDS011;29197;44.788;10.366;2023-08-07T07:28:42;0.43;;;0.20;;
43606;SDS011;29197;44.788;10.366;2023-08-07T07:31:30;1.33;;;0.45;;
43606;SDS011;29197;44.788;10.366;2023-08-07T07:34:19;6.32;;;0.73;;
43606;SDS011;29197;44.788;10.366;2023-08-07T07:37:09;1.45;;;0.40;;
43606;SDS011;29197;44.788;10.366;2023-08-07T07:39:58;0.73;;;0.32;;
43606;SDS011;29197;44.788;10.366;2023-08-07T07:42:46;0.20;;;0.20;;
43606;SDS011;29197;44.788;10.366;2023-08-07T07:45:35;0.63;;;0.20;;
43606;SDS011;29197;44.788;10.366;2023-08-07T07:48:23;1.33;;;0.20;;
43606;SDS011;29197;44.788;10.366;2023-08-07T07:51:12;1.05;;;0.38;;
43606;SDS011;29197;44.788;10.366;2023-08-07T07:54:02;0.30;;;0.20;;
43606;SDS011;29197;44.788;10.366;2023-08-07T07:57:00;0.65;;;0.30;;
43606;SDS011;29197;44.788;10.366;2023-08-07T07:59:49;3.28;;;0.43;;
43606;SDS011;29197;44.788;10.366;2023-08-07T08:02:38;0.77;;;0.22;;
43606;SDS011;29197;44.788;10.366;2023-08-07T08:05:48;1.75;;;0.30;;
43606;SDS011;29197;44.788;10.366;2023-08-07T08:08:38;2.28;;;0.50;;
43606;SDS011;29197;44.788;10.366;2023-08-07T08:11:27;0.28;;;0.20;;
43606;SDS011;29197;44.788;10.366;2023-08-07T08:14:16;0.40;;;0.25;;
43606;SDS011;29197;44.788;10.366;2023-08-07T08:17:05;0.30;;;0.30;;
43606;SDS011;29197;44.788;10.366;2023-08-07T08:19:53;2.53;;;0.38;;
43606;SDS011;29197;44.788;10.366;2023-08-07T08:22:42;3.78;;;0.65;;
43606;SDS011;29197;44.788;10.366;2023-08-07T08:25:30;2.47;;;0.40;;
43606;SDS011;29197;44.788;10.366;2023-08-07T08:28:22;0.90;;;0.40;;
43606;SDS011;29197;44.788;10.366;2023-08-07T08:31:11;1.15;;;0.30;;
43606;SDS011;29197;44.788;10.366;2023-08-07T08:34:00;2.90;;;0.47;;
43606;SDS011;29197;44.788;10.366;2023-08-07T08:36:48;3.92;;;0.52;;
43606;SDS011;29197;44.788;10.366;2023-08-07T08:39:37;0.43;;;0.43;;
43606;SDS011;29197;44.788;10.366;2023-08-07T08:42:25;0.52;;;0.32;;
43606;SDS011;29197;44.788;10.366;2023-08-07T08:45:16;1.23;;;0.32;;
43606;SDS011;29197;44.788;10.366;2023-08-07T08:48:07;0.47;;;0.38;;
43606;SDS011;29197;44.788;10.366;2023-08-07T08:51:00;0.52;;;0.40;;
43606;SDS011;29197;44.788;10.366;2023-08-07T08:53:50;0.22;;;0.22;;
43606;SDS011;29197;44.788;10.366;2023-08-07T08:56:40;0.63;;;0.32;;
43606;SDS011;29197;44.788;10.366;2023-08-07T08:59:30;1.50;;;0.30;;
43606;SDS011;29197;44.788;10.366;2023-08-07T09:02:21;1.67;;;0.52;;
43606;SDS011;29197;44.788;10.366;2023-08-07T09:05:09;2.17;;;0.40;;
43606;SDS011;29197;44.788;10.366;2023-08-07T09:07:58;1.52;;;0.40;;
43606;SDS011;29197;44.788;10.366;2023-08-07T09:10:48;2.85;;;0.40;;
43606;SDS011;29197;44.788;10.366;2023-08-07T09:13:37;1.95;;;0.47;;
43606;SDS011;29197;44.788;10.366;2023-08-07T09:16:26;5.25;;;0.50;;
43606;SDS011;29197;44.788;10.366;2023-08-07T09:19:17;0.28;;;0.20;;
43606;SDS011;29197;44.788;10.366;2023-08-07T09:22:06;0.52;;;0.38;;
43606;SDS011;29197;44.788;10.366;2023-08-07T09:24:55;1.10;;;0.55;;
43606;SDS011;29197;44.788;10.366;2023-08-07T09:27:46;0.65;;;0.25;;
43606;SDS011;29197;44.788;10.366;2023-08-07T09:30:35;2.15;;;0.30;;
43606;SDS011;29197;44.788;10.366;2023-08-07T09:33:25;1.67;;;0.40;;
43606;SDS011;29197;44.788;10.366;2023-08-07T09:36:15;0.43;;;0.32;;
43606;SDS011;29197;44.788;10.366;2023-08-07T09:39:05;1.15;;;0.35;;
43606;SDS011;29197;44.788;10.366;2023-08-07T09:41:53;1.65;;;0.40;;
43606;SDS011;29197;44.788;10.366;2023-08-07T09:44:42;0.40;;;0.22;;
43606;SDS011;29197;44.788;10.366;2023-08-07T09:47:33;0.20;;;0.20;;
43606;SDS011;29197;44.788;10.366;2023-08-07T09:50:23;0.60;;;0.47;;
43606;SDS011;29197;44.788;10.366;2023-08-07T09:53:13;1.33;;;0.50;;
43606;SDS011;29197;44.788;10.366;2023-08-07T09:56:02;5.63;;;0.63;;
43606;SDS011;29197;44.788;10.366;2023-08-07T09:58:51;1.30;;;0.50;;
43606;SDS011;29197;44.788;10.366;2023-08-07T10:01:42;4.75;;;0.60;;
43606;SDS011;29197;44.788;10.366;2023-08-07T10:04:31;1.00;;;0.43;;
43606;SDS011;29197;44.788;10.366;2023-08-07T10:07:19;0.63;;;0.30;;
43606;SDS011;29197;44.788;10.366;2023-08-07T10:10:10;0.50;;;0.35;;
43606;SDS011;29197;44.788;10.366;2023-08-07T10:12:59;0.65;;;0.40;;
43606;SDS011;29197;44.788;10.366;2023-08-07T10:15:48;1.77;;;0.55;;
43606;SDS011;29197;44.788;10.366;2023-08-07T10:18:37;1.13;;;0.60;;
43606;SDS011;29197;44.788;10.366;2023-08-07T10:21:26;0.20;;;0.20;;
43606;SDS011;29197;44.788;10.366;2023-08-07T10:24:15;0.75;;;0.73;;
43606;SDS011;29197;44.788;10.366;2023-08-07T10:27:06;2.28;;;0.43;;
43606;SDS011;29197;44.788;10.366;2023-08-07T10:29:55;4.40;;;0.40;;
43606;SDS011;29197;44.788;10.366;2023-08-07T10:32:46;0.85;;;0.30;;
43606;SDS011;29197;44.788;10.366;2023-08-07T10:35:36;1.25;;;0.50;;
43606;SDS011;29197;44.788;10.366;2023-08-07T10:38:25;5.57;;;0.57;;
43606;SDS011;29197;44.788;10.366;2023-08-07T10:41:14;1.65;;;0.35;;
43606;SDS011;29197;44.788;10.366;2023-08-07T10:44:04;1.35;;;0.43;;
43606;SDS011;29197;44.788;10.366;2023-08-07T10:46:53;1.02;;;0.30;;
43606;SDS011;29197;44.788;10.366;2023-08-07T10:49:43;1.15;;;0.50;;
43606;SDS011;29197;44.788;10.366;2023-08-07T10:52:32;3.40;;;0.57;;
43606;SDS011;29197;44.788;10.366;2023-08-07T10:55:20;2.15;;;0.40;;
43606;SDS011;29197;44.788;10.366;2023-08-07T10:58:20;0.40;;;0.25;;
43606;SDS011;29197;44.788;10.366;2023-08-07T11:01:18;0.30;;;0.30;;
43606;SDS011;29197;44.788;10.366;2023-08-07T11:04:10;0.68;;;0.40;;
43606;SDS011;29197;44.788;10.366;2023-08-07T11:06:59;0.28;;;0.28;;
43606;SDS011;29197;44.788;10.366;2023-08-07T11:09:47;0.20;;;0.20;;
43606;SDS011;29197;44.788;10.366;2023-08-07T11:12:37;0.70;;;0.20;;
43606;SDS011;29197;44.788;10.366;2023-08-07T11:15:26;0.60;;;0.20;;
43606;SDS011;29197;44.788;10.366;2023-08-07T11:18:16;0.35;;;0.30;;
43606;SDS011;29197;44.788;10.366;2023-08-07T11:21:06;0.22;;;0.22;;
43606;SDS011;29197;44.788;10.366;2023-08-07T11:23:55;0.38;;;0.28;;
43606;SDS011;29197;44.788;10.366;2023-08-07T11:26:43;0.30;;;0.20;;
43606;SDS011;29197;44.788;10.366;2023-08-07T11:29:33;0.82;;;0.28;;
43606;SDS011;29197;44.788;10.366;2023-08-07T11:32:21;1.88;;;0.35;;
43606;SDS011;29197;44.788;10.366;2023-08-07T11:35:11;2.05;;;0.35;;
43606;SDS011;29197;44.788;10.366;2023-08-07T11:38:00;1.35;;;0.45;;
43606;SDS011;29197;44.788;10.366;2023-08-07T11:40:48;2.15;;;0.22;;
43606;SDS011;29197;44.788;10.366;2023-08-07T11:43:37;0.52;;;0.30;;
43606;SDS011;29197;44.788;10.366;2023-08-07T11:46:26;2.17;;;0.38;;
43606;SDS011;29197;44.788;10.366;2023-08-07T11:49:16;0.70;;;0.22;;
43606;SDS011;29197;44.788;10.366;2023-08-07T11:52:07;2.00;;;0.60;;
43606;SDS011;29197;44.788;10.366;2023-08-07T11:54:56;0.85;;;0.50;;
43606;SDS011;29197;44.788;10.366;2023-08-07T11:57:45;0.55;;;0.40;;
43606;SDS011;29197;44.788;10.366;2023-08-07T12:00:34;0.30;;;0.30;;
43606;SDS011;29197;44.788;10.366;2023-08-07T12:03:23;0.30;;;0.30;;
43606;SDS011;29197;44.788;10.366;2023-08-07T12:06:13;2.50;;;0.40;;
43606;SDS011;29197;44.788;10.366;2023-08-07T12:09:03;2.30;;;0.35;;
43606;SDS011;29197;44.788;10.366;2023-08-07T12:11:55;0.20;;;0.20;;
43606;SDS011;29197;44.788;10.366;2023-08-07T12:14:44;0.20;;;0.20;;
43606;SDS011;29197;44.788;10.366;2023-08-07T12:17:33;2.05;;;0.50;;
43606;SDS011;29197;44.788;10.366;2023-08-07T12:20:22;1.75;;;0.30;;
43606;SDS011;29197;44.788;10.366;2023-08-07T12:23:12;1.58;;;0.40;;
43606;SDS011;29197;44.788;10.366;2023-08-07T12:26:05;0.55;;;0.20;;
43606;SDS011;29197;44.788;10.366;2023-08-07T12:28:54;0.70;;;0.60;;
43606;SDS011;29197;44.788;10.366;2023-08-07T12:31:42;2.47;;;0.60;;
43606;SDS011;29197;44.788;10.366;2023-08-07T12:34:31;6.95;;;1.00;;
43606;SDS011;29197;44.788;10.366;2023-08-07T12:37:40;0.68;;;0.30;;
43606;SDS011;29197;44.788;10.366;2023-08-07T12:40:29;0.20;;;0.20;;
43606;SDS011;29197;44.788;10.366;2023-08-07T12:43:23;0.75;;;0.32;;
43606;SDS011;29197;44.788;10.366;2023-08-07T12:46:11;1.20;;;0.40;;
43606;SDS011;29197;44.788;10.366;2023-08-07T12:49:03;0.73;;;0.38;;
43606;SDS011;29197;44.788;10.366;2023-08-07T12:51:51;0.57;;;0.40;;
43606;SDS011;29197;44.788;10.366;2023-08-07T12:54:42;0.90;;;0.50;;
43606;SDS011;29197;44.788;10.366;2023-08-07T12:57:31;0.30;;;0.30;;
43606;SDS011;29197;44.788;10.366;2023-08-07T13:00:21;0.20;;;0.20;;
43606;SDS011;29197;44.788;10.366;2023-08-07T13:03:10;0.93;;;0.30;;
43606;SDS011;29197;44.788;10.366;2023-08-07T13:05:59;0.30;;;0.30;;
43606;SDS011;29197;44.788;10.366;2023-08-07T13:08:47;1.90;;;0.50;;
43606;SDS011;29197;44.788;10.366;2023-08-07T13:11:36;0.85;;;0.40;;
43606;SDS011;29197;44.788;10.366;2023-08-07T13:14:24;0.47;;;0.30;;
43606;SDS011;29197;44.788;10.366;2023-08-07T13:17:14;0.52;;;0.30;;
43606;SDS011;29197;44.788;10.366;2023-08-07T13:20:03;0.47;;;0.40;;
43606;SDS011;29197;44.788;10.366;2023-08-07T13:22:54;0.90;;;0.38;;
43606;SDS011;29197;44.788;10.366;2023-08-07T13:25:43;0.63;;;0.32;;
43606;SDS011;29197;44.788;10.366;2023-08-07T13:28:31;0.68;;;0.40;;
43606;SDS011;29197;44.788;10.366;2023-08-07T13:31:20;2.47;;;0.52;;
43606;SDS011;29197;44.788;10.366;2023-08-07T13:34:10;0.40;;;0.32;;
43606;SDS011;29197;44.788;10.366;2023-08-07T13:36:59;0.90;;;0.60;;
43606;SDS011;29197;44.788;10.366;2023-08-07T13:39:47;1.15;;;0.45;;
43606;SDS011;29197;44.788;10.366;2023-08-07T13:42:38;2.50;;;0.30;;
43606;SDS011;29197;44.788;10.366;2023-08-07T13:45:27;0.40;;;0.30;;
43606;SDS011;29197;44.788;10.366;2023-08-07T13:48:15;1.00;;;0.38;;
43606;SDS011;29197;44.788;10.366;2023-08-07T13:51:05;1.75;;;0.35;;
43606;SDS011;29197;44.788;10.366;2023-08-07T13:53:54;0.30;;;0.30;;
43606;SDS011;29197;44.788;10.366;2023-08-07T13:56:43;0.50;;;0.50;;
43606;SDS011;29197;44.788;10.366;2023-08-07T13:59:32;0.40;;;0.40;;
43606;SDS011;29197;44.788;10.366;2023-08-07T14:02:20;0.60;;;0.60;;
43606;SDS011;29197;44.788;10.366;2023-08-07T14:05:09;0.50;;;0.40;;
43606;SDS011;29197;44.788;10.366;2023-08-07T14:08:00;0.60;;;0.60;;
43606;SDS011;29197;44.788;10.366;2023-08-07T14:10:49;0.70;;;0.40;;
43606;SDS011;29197;44.788;10.366;2023-08-07T14:13:37;0.50;;;0.30;;
43606;SDS011;29197;44.788;10.366;2023-08-07T14:16:26;2.88;;;0.73;;
43606;SDS011;29197;44.788;10.366;2023-08-07T14:19:14;0.73;;;0.60;;
43606;SDS011;29197;44.788;10.366;2023-08-07T14:22:03;0.47;;;0.45;;
43606;SDS011;29197;44.788;10.366;2023-08-07T14:24:53;0.40;;;0.40;;
43606;SDS011;29197;44.788;10.366;2023-08-07T14:27:41;0.50;;;0.40;;
43606;SDS011;29197;44.788;10.366;2023-08-07T14:30:30;2.85;;;0.57;;
43606;SDS011;29197;44.788;10.366;2023-08-07T14:33:19;0.50;;;0.40;;
43606;SDS011;29197;44.788;10.366;2023-08-07T14:36:07;1.08;;;0.38;;
43606;SDS011;29197;44.788;10.366;2023-08-07T14:38:56;0.50;;;0.40;;
43606;SDS011;29197;44.788;10.366;2023-08-07T14:41:46;0.52;;;0.40;;
43606;SDS011;29197;44.788;10.366;2023-08-07T14:44:37;2.03;;;0.75;;
43606;SDS011;29197;44.788;10.366;2023-08-07T14:47:26;0.52;;;0.45;;
43606;SDS011;29197;44.788;10.366;2023-08-07T14:50:14;0.30;;;0.30;;
43606;SDS011;29197;44.788;10.366;2023-08-07T14:53:03;0.40;;;0.40;;
43606;SDS011;29197;44.788;10.366;2023-08-07T14:55:52;0.60;;;0.50;;
43606;SDS011;29197;44.788;10.366;2023-08-07T14:58:42;0.30;;;0.30;;
43606;SDS011;29197;44.788;10.366;2023-08-07T15:01:30;0.32;;;0.32;;
43606;SDS011;29197;44.788;10.366;2023-08-07T15:04:19;1.90;;;0.60;;
43606;SDS011;29197;44.788;10.366;2023-08-07T15:07:07;0.35;;;0.35;;
43606;SDS011;29197;44.788;10.366;2023-08-07T15:09:56;0.55;;;0.40;;
43606;SDS011;29197;44.788;10.366;2023-08-07T15:12:45;0.50;;;0.40;;
43606;SDS011;29197;44.788;10.366;2023-08-07T15:15:35;1.00;;;0.38;;
43606;SDS011;29197;44.788;10.366;2023-08-07T15:18:23;0.43;;;0.38;;
43606;SDS011;29197;44.788;10.366;2023-08-07T15:21:12;1.02;;;0.50;;
43606;SDS011;29197;44.788;10.366;2023-08-07T15:24:00;1.17;;;0.57;;
43606;SDS011;29197;44.788;10.366;2023-08-07T15:26:49;0.80;;;0.65;;
43606;SDS011;29197;44.788;10.366;2023-08-07T15:29:38;0.55;;;0.47;;
43606;SDS011;29197;44.788;10.366;2023-08-07T15:32:29;0.40;;;0.40;;
43606;SDS011;29197;44.788;10.366;2023-08-07T15:35:17;0.50;;;0.50;;
43606;SDS011;29197;44.788;10.366;2023-08-07T15:38:06;0.50;;;0.30;;
43606;SDS011;29197;44.788;10.366;2023-08-07T15:40:57;0.30;;;0.20;;
43606;SDS011;29197;44.788;10.366;2023-08-07T15:43:45;1.65;;;0.50;;
43606;SDS011;29197;44.788;10.366;2023-08-07T15:46:36;0.65;;;0.52;;
43606;SDS011;29197;44.788;10.366;2023-08-07T15:49:26;3.33;;;0.50;;
43606;SDS011;29197;44.788;10.366;2023-08-07T15:52:14;0.80;;;0.50;;
43606;SDS011;29197;44.788;10.366;2023-08-07T15:55:05;1.05;;;0.40;;
43606;SDS011;29197;44.788;10.366;2023-08-07T15:57:54;0.30;;;0.30;;
43606;SDS011;29197;44.788;10.366;2023-08-07T16:00:44;0.43;;;0.40;;
43606;SDS011;29197;44.788;10.366;2023-08-07T16:03:32;0.50;;;0.50;;
43606;SDS011;29197;44.788;10.366;2023-08-07T16:06:24;0.77;;;0.40;;
43606;SDS011;29197;44.788;10.366;2023-08-07T16:09:13;0.50;;;0.40;;
43606;SDS011;29197;44.788;10.366;2023-08-07T16:12:02;0.45;;;0.40;;
43606;SDS011;29197;44.788;10.366;2023-08-07T16:14:51;0.70;;;0.50;;
43606;SDS011;29197;44.788;10.366;2023-08-07T16:17:42;1.10;;;0.60;;
43606;SDS011;29197;44.788;10.366;2023-08-07T16:20:31;0.82;;;0.43;;
43606;SDS011;29197;44.788;10.366;2023-08-07T16:23:21;0.10;;;0.10;;
43606;SDS011;29197;44.788;10.366;2023-08-07T16:26:10;0.50;;;0.30;;
43606;SDS011;29197;44.788;10.366;2023-08-07T16:28:59;0.65;;;0.32;;
43606;SDS011;29197;44.788;10.366;2023-08-07T16:31:48;0.60;;;0.40;;
43606;SDS011;29197;44.788;10.366;2023-08-07T16:34:39;1.02;;;0.55;;
43606;SDS011;29197;44.788;10.366;2023-08-07T16:37:28;0.60;;;0.50;;
43606;SDS011;29197;44.788;10.366;2023-08-07T16:40:19;2.25;;;0.65;;
43606;SDS011;29197;44.788;10.366;2023-08-07T16:43:07;1.27;;;0.50;;
43606;SDS011;29197;44.788;10.366;2023-08-07T16:45:56;0.65;;;0.40;;